Time;durP1;ratioP1;P1;durP2;ratioP2;P2;SDS_P1;SDS_P2;PMS_P1;PMS_P2;Temp;Humidity;BMP_temperature;BMP_pressure;BME280_temperature;BME280_humidity;BME280_pressure;Samples;Min_cycle;Max_cycle;Signal;HPM_P1;HPM_P2
2021/07/04 00:00:16;;;;;;;6.00;3.35;;;;;;;19.72;100.00;100511.41;4882484;29;20458;-77
2021/07/04 00:03:03;;;;;;;5.20;3.20;;;;;;;20.21;100.00;100505.75;4867824;29;20033;-77
2021/07/04 00:05:49;;;;;;;8.52;4.20;;;;;;;20.32;100.00;100513.97;4867916;29;20359;-77
2021/07/04 00:08:35;;;;;;;7.20;3.60;;;;;;;20.55;100.00;100509.91;4867175;29;20351;-77
2021/07/04 00:11:21;;;;;;;5.82;3.60;;;;;;;20.67;100.00;100519.78;4881505;29;20048;-77
2021/07/04 00:14:07;;;;;;;4.40;3.47;;;;;;;20.78;100.00;100518.16;4881943;29;20478;-77
2021/07/04 00:16:53;;;;;;;7.00;3.92;;;;;;;20.58;100.00;100509.72;4881632;29;20056;-77
2021/07/04 00:19:42;;;;;;;6.20;3.65;;;;;;;20.25;100.00;100512.63;4867797;29;20172;-76
2021/07/04 00:22:27;;;;;;;5.68;3.50;;;;;;;20.70;100.00;100515.13;4881632;29;20037;-77
2021/07/04 00:25:16;;;;;;;8.38;3.80;;;;;;;20.64;100.00;100515.53;4881816;29;20140;-77
2021/07/04 00:28:02;;;;;;;4.90;3.83;;;;;;;20.43;100.00;100505.31;4868121;29;20029;-77
2021/07/04 00:30:49;;;;;;;11.40;3.88;;;;;;;19.83;100.00;100504.50;4867524;29;20021;-77
2021/07/04 00:33:35;;;;;;;5.88;4.03;;;;;;;20.04;100.00;100505.88;4867985;29;20075;-77
2021/07/04 00:36:20;;;;;;;5.65;4.13;;;;;;;20.16;100.00;100517.63;4868128;29;20037;-77
2021/07/04 00:39:06;;;;;;;7.30;4.25;;;;;;;20.29;100.00;100513.31;4867973;29;20037;-77
2021/07/04 00:41:52;;;;;;;4.97;3.85;;;;;;;20.47;100.00;100515.72;4867606;29;20076;-77
2021/07/04 00:44:38;;;;;;;6.88;4.50;;;;;;;20.11;100.00;100520.59;4881565;29;20067;-77
2021/07/04 00:47:24;;;;;;;6.30;4.30;;;;;;;20.10;100.00;100518.00;4867569;29;20036;-77
2021/07/04 00:50:11;;;;;;;6.63;4.30;;;;;;;20.10;100.00;100518.88;4881674;29;20037;-77
2021/07/04 00:52:58;;;;;;;8.15;4.38;;;;;;;20.17;100.00;100519.38;4881420;29;20481;-77
2021/07/04 00:55:44;;;;;;;4.88;4.10;;;;;;;19.92;100.00;100509.28;4866780;29;20048;-77
2021/07/04 00:58:31;;;;;;;6.90;4.40;;;;;;;20.03;100.00;100506.84;4881115;29;20466;-77
2021/07/04 01:01:17;;;;;;;8.15;4.43;;;;;;;19.92;100.00;100516.38;4880535;29;20093;-77
2021/07/04 01:04:03;;;;;;;5.65;4.40;;;;;;;20.00;100.00;100522.97;4881186;29;20068;-77
2021/07/04 01:06:49;;;;;;;6.68;4.70;;;;;;;19.89;100.00;100512.09;4866174;29;20025;-77
2021/07/04 01:09:35;;;;;;;8.88;5.30;;;;;;;19.84;100.00;100521.31;4881434;29;20468;-76
2021/07/04 01:12:21;;;;;;;7.38;4.60;;;;;;;19.85;100.00;100531.84;4881078;29;20127;-77
2021/07/04 01:15:08;;;;;;;6.13;5.10;;;;;;;19.74;100.00;100531.63;4881203;29;20025;-77
2021/07/04 01:17:58;;;;;;;11.75;5.45;;;;;;;19.51;100.00;100529.44;4881594;29;20459;-77
2021/07/04 01:20:44;;;;;;;8.07;5.13;;;;;;;19.94;100.00;100523.34;4881241;29;20386;-77
2021/07/04 01:23:30;;;;;;;8.75;5.10;;;;;;;19.91;100.00;100522.66;4881542;29;20025;-77
2021/07/04 01:26:16;;;;;;;7.60;4.75;;;;;;;19.59;100.00;100537.81;4881393;29;20138;-77
2021/07/04 01:29:03;;;;;;;8.85;5.40;;;;;;;19.69;100.00;100530.19;4866829;29;20033;-77
2021/07/04 01:31:49;;;;;;;8.13;4.95;;;;;;;19.27;100.00;100527.28;4881656;29;20029;-77
2021/07/04 01:34:34;;;;;;;8.60;5.40;;;;;;;19.08;100.00;100541.56;4867217;29;20025;-77
2021/07/04 01:37:20;;;;;;;7.25;5.38;;;;;;;19.52;100.00;100541.75;4881560;29;20037;-77
2021/07/04 01:40:08;;;;;;;6.75;5.43;;;;;;;19.01;100.00;100542.00;4866775;29;20347;-77
2021/07/04 01:42:54;;;;;;;6.03;4.95;;;;;;;19.17;100.00;100545.53;4881338;29;20116;-77
2021/07/04 01:45:40;;;;;;;7.22;5.15;;;;;;;19.46;100.00;100550.09;4880718;29;20078;-77
2021/07/04 01:48:26;;;;;;;7.43;5.30;;;;;;;19.32;100.00;100542.03;4881142;29;20025;-77
2021/07/04 01:51:12;;;;;;;8.07;5.40;;;;;;;19.19;100.00;100555.13;4881110;29;20139;-77
2021/07/04 01:53:57;;;;;;;7.13;4.97;;;;;;;19.28;100.00;100543.16;4884587;29;20037;-77
2021/07/04 01:56:43;;;;;;;9.15;5.50;;;;;;;18.91;100.00;100554.03;4870238;29;20127;-77
2021/07/04 01:59:29;;;;;;;6.63;4.97;;;;;;;19.37;100.00;100550.59;4869928;29;20037;-77
2021/07/04 02:02:15;;;;;;;8.85;5.63;;;;;;;19.44;100.00;100549.31;4884854;29;20041;-77
2021/07/04 02:05:00;;;;;;;6.95;5.35;;;;;;;19.52;100.00;100562.19;4884065;29;20396;-77
2021/07/04 02:07:46;;;;;;;8.88;5.55;;;;;;;19.54;100.00;100562.94;4884425;29;20070;-77
2021/07/04 02:10:36;;;;;;;6.38;5.68;;;;;;;19.67;100.00;100556.84;4869834;29;20033;-77
2021/07/04 02:13:21;;;;;;;7.68;5.18;;;;;;;19.69;100.00;100556.78;4883473;29;20029;-77
2021/07/04 02:16:07;;;;;;;6.55;5.40;;;;;;;19.69;100.00;100570.06;4884043;29;20033;-77
2021/07/04 02:18:53;;;;;;;7.53;5.30;;;;;;;18.76;100.00;100565.47;4884252;29;20036;-77
2021/07/04 02:21:39;;;;;;;8.13;5.57;;;;;;;18.85;100.00;100565.84;4882683;29;20111;-77
2021/07/04 02:24:24;;;;;;;7.43;5.15;;;;;;;19.18;100.00;100568.47;4883310;29;20450;-77
2021/07/04 02:27:11;;;;;;;7.10;5.38;;;;;;;19.17;100.00;100575.59;4883625;29;20451;-77
2021/07/04 02:29:56;;;;;;;6.95;4.85;;;;;;;18.58;100.00;100585.88;4883249;29;20043;-77
2021/07/04 02:32:42;;;;;;;8.60;5.63;;;;;;;18.74;100.00;100576.16;4884078;29;20039;-76
2021/07/04 02:35:33;;;;;;;8.32;5.70;;;;;;;19.10;100.00;100576.84;4883822;29;20037;-76
2021/07/04 02:38:20;;;;;;;7.53;5.03;;;;;;;19.58;100.00;100569.81;4883983;29;20040;-76
2021/07/04 02:41:05;;;;;;;9.40;5.45;;;;;;;19.88;100.00;100578.66;4883500;29;20037;-76
2021/07/04 02:43:51;;;;;;;7.82;5.68;;;;;;;19.66;100.00;100584.38;4869503;29;20063;-76
2021/07/04 02:46:38;;;;;;;7.72;5.40;;;;;;;19.25;100.00;100590.28;4869196;29;20033;-76
2021/07/04 02:49:24;;;;;;;6.22;5.40;;;;;;;19.46;100.00;100595.28;4883791;29;20111;-76
2021/07/04 02:52:10;;;;;;;9.23;5.40;;;;;;;19.24;100.00;100584.09;4883077;29;20127;-75
2021/07/04 02:54:55;;;;;;;6.43;5.50;;;;;;;19.59;100.00;100590.97;4883631;29;20362;-76
2021/07/04 02:57:41;;;;;;;7.65;5.38;;;;;;;19.78;100.00;100586.34;4882324;29;20029;-76
2021/07/04 03:00:27;;;;;;;6.85;5.47;;;;;;;19.68;100.00;100578.97;4869306;29;20033;-77
2021/07/04 03:03:13;;;;;;;8.25;5.10;;;;;;;19.72;100.00;100576.03;4881989;29;20075;-77
2021/07/04 03:05:59;;;;;;;8.55;5.20;;;;;;;19.74;100.00;100574.16;4869279;29;20051;-77
2021/07/04 03:08:45;;;;;;;8.32;5.07;;;;;;;19.79;100.00;100590.72;4868951;29;20017;-76
2021/07/04 03:11:31;;;;;;;6.15;4.80;;;;;;;20.02;100.00;100608.88;4883336;29;20374;-77
2021/07/04 03:14:17;;;;;;;5.80;4.70;;;;;;;20.23;100.00;100622.75;4870289;29;20458;-77
2021/07/04 03:17:03;;;;;;;9.20;4.82;;;;;;;19.84;100.00;100622.38;4883263;29;20033;-77
2021/07/04 03:19:49;;;;;;;8.57;5.03;;;;;;;19.11;100.00;100614.91;4868810;29;20040;-77
2021/07/04 03:22:35;;;;;;;8.05;5.32;;;;;;;19.57;100.00;100606.13;4880713;29;20110;-77
2021/07/04 03:25:21;;;;;;;8.93;5.70;;;;;;;19.20;100.00;100619.72;4882897;29;20355;-77
2021/07/04 03:28:06;;;;;;;7.70;5.85;;;;;;;18.85;100.00;100629.56;4882140;29;20025;-76
2021/07/04 03:30:52;;;;;;;8.52;6.13;;;;;;;19.19;100.00;100625.97;4869400;29;20106;-77
2021/07/04 03:33:38;;;;;;;7.55;6.13;;;;;;;18.96;100.00;100631.66;4882664;29;20033;-77
2021/07/04 03:36:24;;;;;;;7.95;6.55;;;;;;;19.36;100.00;100633.06;4869101;29;20035;-76
2021/07/04 03:39:10;;;;;;;7.55;6.20;;;;;;;19.14;100.00;100620.88;4881591;29;20056;-77
2021/07/04 03:41:56;;;;;;;7.35;6.43;;;;;;;19.21;100.00;100626.75;4883012;29;20469;-77
2021/07/04 03:44:42;;;;;;;8.05;6.82;;;;;;;19.57;100.00;100630.06;4881796;29;20506;-77
2021/07/04 03:47:28;;;;;;;7.68;6.82;;;;;;;19.54;100.00;100622.28;4882592;29;20032;-76
2021/07/04 03:50:13;;;;;;;9.02;7.10;;;;;;;19.27;100.00;100631.75;4868467;29;20040;-77
2021/07/04 03:53:01;;;;;;;9.35;6.75;;;;;;;19.67;100.00;100627.75;4882358;29;20028;-77
2021/07/04 03:55:46;;;;;;;10.88;6.70;;;;;;;19.43;100.00;100629.97;4881185;29;20411;-77
2021/07/04 03:58:32;;;;;;;7.80;6.85;;;;;;;19.18;100.00;100627.75;4868201;29;20025;-76
2021/07/04 04:01:19;;;;;;;9.02;7.65;;;;;;;19.44;100.00;100633.50;4882349;29;20033;-77
2021/07/04 04:04:05;;;;;;;8.70;7.05;;;;;;;19.28;100.00;100627.31;4881975;29;20067;-77
2021/07/04 04:06:50;;;;;;;9.77;7.75;;;;;;;19.02;100.00;100634.00;4868457;29;20033;-77
2021/07/04 04:09:36;;;;;;;8.88;7.60;;;;;;;19.19;100.00;100624.19;4881945;29;20024;-76
2021/07/04 04:12:22;;;;;;;8.48;7.57;;;;;;;19.39;100.00;100630.22;4882237;29;20039;-77
2021/07/04 04:15:10;;;;;;;10.20;7.70;;;;;;;19.64;100.00;100622.63;4881793;29;20025;-77
2021/07/04 04:17:57;;;;;;;9.55;8.10;;;;;;;19.63;100.00;100618.22;4880724;29;20119;-77
2021/07/04 04:20:43;;;;;;;10.77;8.18;;;;;;;19.83;100.00;100624.16;4881498;29;20045;-77
2021/07/04 04:23:29;;;;;;;12.98;8.82;;;;;;;19.77;100.00;100627.16;4881808;29;20029;-77
2021/07/04 04:26:15;;;;;;;9.55;8.40;;;;;;;19.49;100.00;100626.13;4881958;29;20033;-77
2021/07/04 04:29:00;;;;;;;9.68;8.65;;;;;;;19.57;100.00;100626.56;4867409;29;20128;-77
2021/07/04 04:31:47;;;;;;;11.30;9.05;;;;;;;20.10;100.00;100627.06;4882219;29;20382;-77
2021/07/04 04:34:33;;;;;;;11.02;7.70;;;;;;;19.95;100.00;100620.81;4881594;29;20029;-77
2021/07/04 04:37:19;;;;;;;9.50;8.48;;;;;;;20.17;100.00;100636.41;4882146;29;20412;-77
2021/07/04 04:40:06;;;;;;;10.48;8.18;;;;;;;20.11;100.00;100626.13;4881730;29;20033;-77
2021/07/04 04:42:53;;;;;;;9.82;7.78;;;;;;;20.45;100.00;100634.69;4866875;29;20092;-77
2021/07/04 04:45:39;;;;;;;12.27;8.27;;;;;;;20.62;100.00;100629.22;4881174;29;20049;-77
2021/07/04 04:48:25;;;;;;;10.00;9.00;;;;;;;20.44;100.00;100624.13;4867100;29;20120;-76
2021/07/04 04:51:11;;;;;;;10.05;9.05;;;;;;;19.98;100.00;100622.44;4881436;29;20120;-76
2021/07/04 04:53:57;;;;;;;15.23;8.25;;;;;;;20.51;100.00;100617.50;4881477;29;20180;-76
2021/07/04 04:56:43;;;;;;;12.18;8.40;;;;;;;20.21;100.00;100617.50;4881559;29;20451;-76
2021/07/04 04:59:29;;;;;;;11.10;8.95;;;;;;;20.54;100.00;100607.53;4881367;29;20037;-76
2021/07/04 05:02:15;;;;;;;9.55;8.43;;;;;;;20.96;100.00;100604.97;4867524;29;20029;-77
2021/07/04 05:05:02;;;;;;;10.52;8.93;;;;;;;20.65;100.00;100609.56;4867783;29;20025;-77
2021/07/04 05:07:48;;;;;;;11.25;9.55;;;;;;;19.92;100.00;100607.66;4881687;29;20033;-77
2021/07/04 05:10:34;;;;;;;11.63;8.70;;;;;;;20.71;100.00;100610.06;4881183;29;20036;-77
2021/07/04 05:13:19;;;;;;;9.98;8.68;;;;;;;20.92;100.00;100606.09;4867412;29;20029;-77
2021/07/04 05:16:06;;;;;;;10.45;8.68;;;;;;;20.84;100.00;100604.81;4881135;29;20029;-76
2021/07/04 05:18:51;;;;;;;9.90;8.85;;;;;;;21.14;100.00;100611.81;4880836;29;20033;-76
2021/07/04 05:21:38;;;;;;;10.30;9.18;;;;;;;20.91;100.00;100617.72;4881231;29;20459;-76
2021/07/04 05:24:24;;;;;;;10.32;8.70;;;;;;;20.91;100.00;100612.38;4866854;29;20453;-76
2021/07/04 05:27:10;;;;;;;12.15;8.65;;;;;;;21.20;100.00;100621.22;4883003;29;20036;-76
2021/07/04 05:29:56;;;;;;;13.15;8.88;;;;;;;21.38;100.00;100620.09;4870756;29;20035;-76
2021/07/04 05:32:43;;;;;;;9.18;8.18;;;;;;;21.76;100.00;100618.50;4870628;29;20033;-76
2021/07/04 05:35:29;;;;;;;10.75;9.13;;;;;;;21.38;100.00;100623.59;4870322;29;20075;-76
2021/07/04 05:38:22;;;;;;;15.98;13.70;;;;;;;21.79;100.00;100624.50;4884750;29;20080;-77
2021/07/04 05:41:09;;;;;;;12.85;9.68;;;;;;;22.09;100.00;100622.50;4883368;29;20033;-76
2021/07/04 05:43:55;;;;;;;15.90;9.73;;;;;;;22.25;100.00;100625.88;4884400;29;20131;-77
2021/07/04 05:46:41;;;;;;;11.65;9.00;;;;;;;22.01;100.00;100621.28;4870205;29;20037;-78
2021/07/04 05:49:27;;;;;;;10.07;9.00;;;;;;;22.25;100.00;100616.97;4884542;29;20454;-77
2021/07/04 05:52:13;;;;;;;15.98;9.07;;;;;;;22.03;100.00;100619.38;4883792;29;20065;-77
2021/07/04 05:54:59;;;;;;;9.30;8.40;;;;;;;22.01;100.00;100618.59;4884462;29;20033;-78
2021/07/04 05:57:45;;;;;;;9.88;8.88;;;;;;;21.98;100.00;100625.00;4883531;29;20040;-76
2021/07/04 06:00:30;;;;;;;12.88;9.27;;;;;;;22.05;100.00;100623.66;4884604;29;20060;-77
2021/07/04 06:03:16;;;;;;;12.43;9.25;;;;;;;22.25;100.00;100630.31;4869864;29;20028;-76
2021/07/04 06:06:02;;;;;;;9.93;8.50;;;;;;;22.17;100.00;100622.84;4884636;29;20041;-76
2021/07/04 06:08:48;;;;;;;12.82;8.80;;;;;;;21.89;100.00;100628.28;4869979;29;20514;-77
2021/07/04 06:11:34;;;;;;;9.70;8.45;;;;;;;21.89;100.00;100628.28;4884047;29;20104;-76
2021/07/04 06:14:19;;;;;;;9.82;8.68;;;;;;;22.36;100.00;100625.13;4869725;29;20029;-77
2021/07/04 06:17:05;;;;;;;10.40;8.43;;;;;;;22.27;100.00;100628.44;4883594;29;20029;-77
2021/07/04 06:19:51;;;;;;;9.80;8.27;;;;;;;22.69;100.00;100629.09;4870701;29;20032;-77
2021/07/04 06:22:38;;;;;;;11.65;8.35;;;;;;;22.76;100.00;100622.38;4883613;29;20211;-77
2021/07/04 06:25:23;;;;;;;8.90;8.00;;;;;;;22.87;100.00;100622.47;4884356;29;20108;-77
2021/07/04 06:28:09;;;;;;;14.18;8.20;;;;;;;22.63;100.00;100618.81;4882139;29;20036;-77
2021/07/04 06:30:55;;;;;;;9.70;7.50;;;;;;;23.04;100.00;100615.94;4884062;29;20172;-77
2021/07/04 06:33:41;;;;;;;9.50;8.15;;;;;;;23.55;100.00;100614.09;4870060;29;20060;-77
2021/07/04 06:36:27;;;;;;;9.15;7.93;;;;;;;23.37;100.00;100616.25;4884149;29;20108;-77
2021/07/04 06:39:13;;;;;;;9.63;8.27;;;;;;;23.14;100.00;100609.84;4883710;29;20101;-77
2021/07/04 06:41:59;;;;;;;11.50;8.10;;;;;;;23.14;100.00;100603.63;4883720;29;20037;-77
2021/07/04 06:44:45;;;;;;;12.48;8.27;;;;;;;23.29;100.00;100611.47;4883544;29;20061;-77
2021/07/04 06:47:32;;;;;;;11.80;7.90;;;;;;;23.48;100.00;100602.13;4883220;29;20053;-76
2021/07/04 06:50:19;;;;;;;9.30;7.55;;;;;;;23.66;100.00;100598.94;4869490;29;20443;-77
2021/07/04 06:53:05;;;;;;;9.30;7.85;;;;;;;24.04;100.00;100604.19;4882555;29;20458;-77
2021/07/04 06:55:50;;;;;;;8.20;7.40;;;;;;;23.77;100.00;100601.69;4883502;29;20112;-77
2021/07/04 06:58:36;;;;;;;12.93;7.00;;;;;;;24.24;100.00;100600.88;4882583;29;20029;-77
2021/07/04 07:01:22;;;;;;;7.50;6.70;;;;;;;24.14;100.00;100590.00;4881905;29;20081;-77
2021/07/04 07:04:08;;;;;;;7.15;6.18;;;;;;;24.45;100.00;100586.72;4882897;29;20470;-77
2021/07/04 07:06:53;;;;;;;7.70;6.90;;;;;;;24.45;100.00;100588.53;4869093;29;20053;-77
2021/07/04 07:09:39;;;;;;;9.77;6.50;;;;;;;24.08;100.00;100586.94;4868696;29;20558;-77
2021/07/04 07:12:25;;;;;;;7.40;6.40;;;;;;;24.42;100.00;100573.53;4882617;29;20055;-77
2021/07/04 07:15:12;;;;;;;7.15;6.30;;;;;;;24.64;100.00;100579.00;4869427;29;20043;-77
2021/07/04 07:17:57;;;;;;;6.30;5.70;;;;;;;24.91;100.00;100578.69;4883126;29;20086;-77
2021/07/04 07:20:43;;;;;;;7.60;6.10;;;;;;;25.09;100.00;100578.06;4868995;29;20033;-76
2021/07/04 07:23:29;;;;;;;9.23;5.82;;;;;;;25.18;100.00;100571.97;4882468;29;20033;-77
2021/07/04 07:26:15;;;;;;;8.23;5.90;;;;;;;25.34;100.00;100574.28;4882978;29;20063;-77
2021/07/04 07:29:03;;;;;;;6.05;5.40;;;;;;;25.46;100.00;100573.31;4882288;29;20021;-77
2021/07/04 07:31:49;;;;;;;8.55;5.47;;;;;;;25.49;100.00;100573.06;4882520;29;20481;-77
2021/07/04 07:34:35;;;;;;;6.10;5.50;;;;;;;25.24;100.00;100573.31;4882179;29;20029;-77
2021/07/04 07:37:23;;;;;;;7.72;4.75;;;;;;;25.74;100.00;100572.75;4882629;29;20104;-77
2021/07/04 07:40:09;;;;;;;9.77;4.80;;;;;;;25.98;100.00;100568.94;4867918;29;20033;-77
2021/07/04 07:42:55;;;;;;;6.47;5.13;;;;;;;26.17;100.00;100565.56;4882268;29;20044;-77
2021/07/04 07:45:40;;;;;;;5.97;4.47;;;;;;;26.68;100.00;100556.63;4881910;29;20060;-77
2021/07/04 07:48:26;;;;;;;6.35;5.18;;;;;;;26.37;100.00;100556.69;4881899;29;20045;-76
2021/07/04 07:51:13;;;;;;;6.18;5.28;;;;;;;27.11;100.00;100557.28;4882245;29;20068;-77
2021/07/04 07:53:59;;;;;;;5.80;4.80;;;;;;;26.86;100.00;100555.03;4868567;29;20073;-76
2021/07/04 07:56:46;;;;;;;7.25;4.90;;;;;;;26.84;100.00;100550.78;4882306;29;20527;-77
2021/07/04 07:59:32;;;;;;;8.13;5.03;;;;;;;27.03;100.00;100550.84;4882035;29;20041;-77
2021/07/04 08:02:18;;;;;;;5.88;4.72;;;;;;;27.33;100.00;100553.56;4882220;29;20124;-76
2021/07/04 08:05:04;;;;;;;6.15;4.40;;;;;;;27.88;97.41;100553.00;4881338;29;20025;-77
2021/07/04 08:07:50;;;;;;;5.70;5.00;;;;;;;27.40;100.00;100549.31;4882375;29;20033;-77
2021/07/04 08:10:36;;;;;;;7.28;4.50;;;;;;;28.11;99.79;100550.88;4868125;29;20466;-76
2021/07/04 08:13:22;;;;;;;5.90;4.93;;;;;;;28.26;96.91;100534.16;4867999;29;20048;-77
2021/07/04 08:16:08;;;;;;;6.30;4.72;;;;;;;28.45;96.98;100528.75;4881716;29;20052;-77
2021/07/04 08:18:54;;;;;;;5.28;4.60;;;;;;;28.20;96.88;100532.00;4881834;29;20106;-77
2021/07/04 08:21:41;;;;;;;5.38;4.10;;;;;;;28.08;94.25;100535.84;4880738;29;20423;-77
2021/07/04 08:24:26;;;;;;;5.47;4.05;;;;;;;28.42;88.63;100531.75;4881598;29;20057;-77
2021/07/04 08:27:12;;;;;;;7.82;4.35;;;;;;;28.58;86.44;100526.59;4866927;29;20511;-77
2021/07/04 08:29:58;;;;;;;4.78;4.28;;;;;;;28.62;87.19;100522.63;4881831;29;20033;-77
2021/07/04 08:32:45;;;;;;;4.57;4.00;;;;;;;29.20;87.94;100529.53;4881493;29;20033;-76
2021/07/04 08:35:31;;;;;;;4.72;3.72;;;;;;;29.50;79.56;100531.88;4867147;29;20029;-77
2021/07/04 08:38:17;;;;;;;3.70;3.40;;;;;;;29.32;76.65;100527.47;4868104;29;20092;-77
2021/07/04 08:41:03;;;;;;;3.95;3.30;;;;;;;29.58;73.84;100525.78;4867096;29;20083;-77
2021/07/04 08:43:49;;;;;;;8.55;3.72;;;;;;;29.61;70.54;100520.91;4867025;29;20099;-77
2021/07/04 08:46:40;;;;;;;3.97;3.08;;;;;;;29.55;70.41;100526.91;4881225;29;20061;-77
2021/07/04 08:49:25;;;;;;;3.40;3.08;;;;;;;29.74;68.33;100526.78;4867668;29;20025;-76
2021/07/04 08:52:11;;;;;;;4.28;2.90;;;;;;;30.07;67.28;100509.91;4881236;29;20029;-77
2021/07/04 08:54:57;;;;;;;3.47;3.17;;;;;;;30.40;63.43;100511.03;4881209;29;20032;-77
2021/07/04 08:57:43;;;;;;;6.82;3.30;;;;;;;30.01;66.34;100505.09;4867511;29;20037;-77
2021/07/04 09:00:29;;;;;;;3.42;3.00;;;;;;;29.63;65.00;100505.44;4882605;29;20047;-76
2021/07/04 09:03:24;;;;;;;4.15;3.05;;;;;;;29.95;64.44;100500.34;4884343;29;20040;-77
2021/07/04 09:06:13;;;;;;;5.90;3.13;;;;;;;30.17;65.10;100499.88;4885261;29;20032;-76
2021/07/04 09:09:17;;;;;;;6.38;3.33;;;;;;;29.99;63.30;100493.63;4884991;29;20470;-77
2021/07/04 09:12:05;;;;;;;4.03;3.10;;;;;;;30.44;63.88;100488.06;4871022;29;20037;-77
2021/07/04 09:14:51;;;;;;;3.30;3.00;;;;;;;30.69;64.11;100489.94;4870617;29;20028;-77
2021/07/04 09:17:39;;;;;;;5.72;3.38;;;;;;;31.09;60.68;100487.44;4870762;29;20371;-77
2021/07/04 09:20:28;;;;;;;9.88;3.63;;;;;;;31.35;61.65;100485.56;4885394;29;20033;-76
2021/07/04 09:23:35;;;;;;;6.88;3.40;;;;;;;30.90;58.17;100487.72;4884795;29;20541;-76
2021/07/04 09:26:43;;;;;;;7.40;3.13;;;;;;;30.54;59.58;100486.97;4870640;29;20385;-77
2021/07/04 09:30:05;;;;;;;4.82;3.65;;;;;;;30.54;60.98;100486.97;4870438;29;20028;-76
2021/07/04 09:32:51;;;;;;;5.10;3.33;;;;;;;30.32;59.66;100483.94;4828079;29;20057;-76
2021/07/04 09:35:37;;;;;;;7.47;3.20;;;;;;;30.88;58.51;100490.59;4883723;29;20039;-76
2021/07/04 09:38:32;;;;;;;5.32;3.38;;;;;;;30.50;59.31;100482.88;4884957;29;20072;-77
2021/07/04 09:41:18;;;;;;;5.35;3.70;;;;;;;29.76;61.80;100488.81;4882405;29;20514;-77
2021/07/04 09:44:22;;;;;;;4.10;3.70;;;;;;;30.09;58.83;100474.63;4884265;29;20049;-77
2021/07/04 09:47:19;;;;;;;4.13;3.10;;;;;;;30.44;56.69;100472.72;4884527;29;20029;-76
2021/07/04 09:50:05;;;;;;;6.82;3.70;;;;;;;30.35;61.78;100472.81;4870284;29;20040;-76
2021/07/04 09:53:00;;;;;;;4.22;3.83;;;;;;;30.60;61.50;100467.41;4884082;29;20119;-76
2021/07/04 09:55:51;;;;;;;7.13;4.03;;;;;;;30.41;63.44;100472.16;4884200;29;20037;-76
2021/07/04 09:58:38;;;;;;;6.13;3.75;;;;;;;30.04;60.65;100469.66;4883312;29;20036;-77
2021/07/04 10:01:49;;;;;;;9.80;4.05;;;;;;;30.33;59.68;100458.59;4869821;29;20074;-77
2021/07/04 10:04:36;;;;;;;7.53;4.03;;;;;;;30.17;61.41;100456.63;4869678;29;20048;-76
2021/07/04 10:07:31;;;;;;;6.55;3.92;;;;;;;29.94;61.64;100470.78;4884177;29;20354;-77
2021/07/04 10:10:17;;;;;;;6.95;4.10;;;;;;;29.98;63.55;100470.28;4883721;29;20040;-75
2021/07/04 10:13:03;;;;;;;4.32;3.90;;;;;;;29.98;64.72;100458.66;4882836;29;20079;-77
2021/07/04 10:15:49;;;;;;;6.28;3.90;;;;;;;30.08;63.48;100454.84;4883196;29;20091;-77
2021/07/04 10:18:36;;;;;;;7.68;4.03;;;;;;;30.22;59.73;100451.59;4883917;29;20132;-77
2021/07/04 10:21:23;;;;;;;8.85;3.90;;;;;;;29.87;59.88;100453.47;4869702;29;20056;-77
2021/07/04 10:24:10;;;;;;;7.15;4.15;;;;;;;29.14;61.54;100446.47;4869345;29;20044;-77
2021/07/04 10:27:00;;;;;;;7.35;4.45;;;;;;;29.24;62.35;100447.25;4883750;29;20033;-77
2021/07/04 10:29:49;;;;;;;4.15;3.50;;;;;;;29.68;61.71;100442.81;4869307;29;20463;-77
2021/07/04 10:32:35;;;;;;;5.10;3.90;;;;;;;29.39;60.76;100448.44;4883621;29;20048;-77
2021/07/04 10:35:21;;;;;;;4.25;3.85;;;;;;;30.07;59.93;100444.19;4882844;29;20033;-77
2021/07/04 10:38:15;;;;;;;3.92;3.33;;;;;;;30.17;58.04;100444.94;4882907;29;20028;-77
2021/07/04 10:41:06;;;;;;;6.50;3.63;;;;;;;29.76;53.19;100441.06;4883118;29;20447;-77
2021/07/04 10:43:54;;;;;;;7.38;3.30;;;;;;;29.26;53.05;100430.91;4883114;29;20053;-77
2021/07/04 10:46:41;;;;;;;3.92;3.28;;;;;;;29.15;53.62;100428.41;4883165;29;20071;-77
2021/07/04 10:49:32;;;;;;;5.47;3.35;;;;;;;29.37;54.79;100431.53;4883692;29;20047;-77
2021/07/04 10:52:23;;;;;;;4.07;3.42;;;;;;;29.60;55.15;100437.34;4870050;29;20451;-77
2021/07/04 10:55:14;;;;;;;3.75;3.22;;;;;;;30.19;50.83;100432.16;4883732;29;20048;-77
2021/07/04 10:58:04;;;;;;;3.92;3.30;;;;;;;30.40;52.00;100438.88;4868822;29;20056;-77
2021/07/04 11:00:50;;;;;;;5.85;3.00;;;;;;;30.70;49.04;100437.56;4883334;29;20033;-77
2021/07/04 11:03:37;;;;;;;4.88;2.95;;;;;;;30.71;50.05;100432.00;4882916;29;20033;-78
2021/07/04 11:06:55;;;;;;;4.88;2.90;;;;;;;31.02;48.76;100427.72;4883047;29;20040;-78
2021/07/04 11:09:53;;;;;;;5.22;3.00;;;;;;;31.05;48.89;100430.09;4882052;29;20037;-76
2021/07/04 11:12:38;;;;;;;4.43;2.92;;;;;;;31.52;49.94;100416.84;4882914;29;20051;-76
2021/07/04 11:15:25;;;;;;;3.95;3.13;;;;;;;31.10;48.50;100422.31;4882413;29;20354;-76
2021/07/04 11:18:21;;;;;;;5.60;3.25;;;;;;;31.09;48.41;100419.78;4881613;29;20029;-77
2021/07/04 11:21:07;;;;;;;3.75;3.38;;;;;;;31.34;49.19;100408.88;4868649;29;20048;-77
2021/07/04 11:24:14;;;;;;;3.83;3.03;;;;;;;31.35;48.47;100421.38;4881837;29;20033;-77
2021/07/04 11:27:24;;;;;;;4.63;3.25;;;;;;;31.40;48.27;100418.19;4879735;29;20087;-77
2021/07/04 11:30:25;;;;;;;4.68;3.40;;;;;;;31.03;49.25;100429.41;4883056;29;20123;-76
2021/07/04 11:33:33;;;;;;;9.25;3.38;;;;;;;30.85;50.69;100412.44;4882595;29;20037;-76
2021/07/04 11:36:27;;;;;;;3.47;3.17;;;;;;;30.87;51.40;100417.69;4882696;29;20037;-77
2021/07/04 11:39:13;;;;;;;3.22;2.92;;;;;;;31.08;49.67;100424.34;4882468;29;20044;-77
2021/07/04 11:41:59;;;;;;;4.65;3.17;;;;;;;30.11;49.48;100414.00;4868191;29;20596;-76
2021/07/04 11:44:47;;;;;;;5.03;3.17;;;;;;;29.95;51.73;100419.28;4882180;29;20057;-77
2021/07/04 11:47:32;;;;;;;3.50;3.20;;;;;;;30.12;52.11;100417.53;4867993;29;20032;-76
2021/07/04 11:50:18;;;;;;;3.67;3.38;;;;;;;30.05;52.34;100417.31;4881564;29;20515;-77
2021/07/04 11:53:05;;;;;;;3.40;3.10;;;;;;;31.14;49.67;100415.56;4882008;29;20400;-76
2021/07/04 11:56:02;;;;;;;3.90;3.17;;;;;;;31.48;47.25;100411.94;4882576;29;20025;-77
2021/07/04 11:58:48;;;;;;;3.60;3.30;;;;;;;31.12;48.50;100414.91;4881852;29;20033;-76
2021/07/04 12:01:51;;;;;;;3.60;3.15;;;;;;;30.90;50.96;100420.06;4868146;29;20025;-77
2021/07/04 12:04:40;;;;;;;4.03;3.10;;;;;;;30.81;50.81;100416.47;4880649;29;20378;-76
2021/07/04 12:07:26;;;;;;;7.57;3.45;;;;;;;30.58;51.33;100404.50;4868245;29;20036;-77
2021/07/04 12:10:13;;;;;;;3.83;3.33;;;;;;;30.08;48.97;100414.31;4881794;29;20374;-76
2021/07/04 12:12:58;;;;;;;3.55;2.92;;;;;;;30.11;48.97;100410.44;4881920;29;20091;-76
2021/07/04 12:15:49;;;;;;;3.28;2.97;;;;;;;30.82;48.23;100418.16;4868318;29;20386;-76
2021/07/04 12:18:36;;;;;;;5.25;3.20;;;;;;;31.07;48.33;100408.28;4880817;29;20025;-77
2021/07/04 12:21:22;;;;;;;5.05;3.33;;;;;;;30.70;47.49;100408.63;4881581;29;20043;-77
2021/07/04 12:24:08;;;;;;;8.55;6.10;;;;;;;30.37;50.32;100417.56;4867498;29;20116;-77
2021/07/04 12:26:53;;;;;;;4.13;3.38;;;;;;;30.65;51.27;100412.78;4867301;29;20081;-77
2021/07/04 12:30:11;;;;;;;6.70;5.38;;;;;;;30.61;51.66;100409.59;4867779;29;20111;-76
2021/07/04 12:33:02;;;;;;;4.68;3.63;;;;;;;30.62;51.88;100410.44;4881607;29;20036;-76
2021/07/04 12:35:51;;;;;;;5.80;3.38;;;;;;;30.56;50.26;100408.38;4867533;29;20044;-76
2021/07/04 12:38:39;;;;;;;4.80;3.28;;;;;;;30.35;54.61;100403.38;4881819;29;20093;-78
2021/07/04 12:41:33;;;;;;;5.93;3.78;;;;;;;30.35;55.73;100400.66;4881327;29;20037;-77
2021/07/04 12:44:19;;;;;;;5.22;3.67;;;;;;;30.62;56.59;100405.84;4881123;29;20052;-77
2021/07/04 12:47:11;;;;;;;6.03;4.93;;;;;;;30.12;58.73;100404.88;4881044;29;20367;-76
2021/07/04 12:50:05;;;;;;;4.35;3.83;;;;;;;29.68;57.99;100397.78;4881837;29;20037;-76
2021/07/04 12:53:00;;;;;;;4.65;3.58;;;;;;;30.32;57.30;100400.97;4865899;29;20108;-76